createdAt,value
2023-02-18T00:00:29.786Z,10.46
2023-02-18T00:02:56.385Z,10.29
2023-02-18T00:05:23.252Z,10.81
2023-02-18T00:07:50.082Z,10.66
2023-02-18T00:10:16.899Z,10.65
2023-02-18T00:12:44.822Z,10.78
2023-02-18T00:15:11.460Z,10.48
2023-02-18T00:17:38.048Z,10.76
2023-02-18T00:20:06.700Z,10.78
2023-02-18T00:22:33.405Z,10.91
2023-02-18T00:25:00.082Z,10.77
2023-02-18T00:27:26.730Z,10.79
2023-02-18T00:29:53.433Z,10.48
2023-02-18T00:32:20.333Z,10.73
2023-02-18T00:34:47.019Z,10.67
2023-02-18T00:37:13.625Z,10.13
2023-02-18T00:39:40.353Z,10.22
2023-02-18T00:42:06.986Z,10.44
2023-02-18T00:44:33.715Z,10.43
2023-02-18T00:47:00.328Z,10.67
2023-02-18T00:49:26.977Z,10.16
2023-02-18T00:51:53.564Z,10.09
2023-02-18T00:54:20.143Z,9.67
2023-02-18T00:56:46.725Z,9.35
2023-02-18T00:59:13.349Z,9.82
2023-02-18T01:01:40.014Z,9.24
2023-02-18T01:04:06.680Z,9.33
2023-02-18T01:06:33.813Z,9.55
2023-02-18T01:09:00.417Z,8.67
2023-02-18T01:11:27.163Z,8.27
2023-02-18T01:13:54.325Z,8.23
2023-02-18T01:16:21.073Z,8.18
2023-02-18T01:18:47.751Z,9.14
2023-02-18T01:21:14.986Z,9.55
2023-02-18T01:23:42.441Z,9.36
2023-02-18T01:26:10.958Z,9.81
2023-02-18T01:28:38.733Z,9.92
2023-02-18T01:31:12.052Z,10.08
2023-02-18T01:33:39.117Z,9.57
2023-02-18T01:36:07.057Z,10.03
2023-02-18T01:38:33.891Z,10.42
2023-02-18T01:41:00.545Z,10.18
2023-02-18T01:43:27.180Z,10.70
2023-02-18T01:46:04.588Z,10.73
2023-02-18T01:48:40.031Z,10.44
2023-02-18T01:51:10.045Z,10.09
2023-02-18T01:53:48.814Z,10.22
2023-02-18T01:56:24.566Z,10.06
2023-02-18T01:58:55.024Z,10.56
2023-02-18T02:01:21.813Z,10.63
2023-02-18T02:03:48.453Z,10.39
2023-02-18T02:06:20.519Z,10.48
2023-02-18T02:08:51.331Z,10.93
2023-02-18T02:11:30.828Z,11.01
2023-02-18T02:14:25.049Z,10.83
2023-02-18T02:17:03.744Z,10.93
2023-02-18T02:20:19.052Z,11.04
2023-02-18T02:23:09.719Z,10.76
2023-02-18T02:25:58.042Z,11.05
2023-02-18T02:28:57.883Z,11.01
2023-02-18T02:31:47.782Z,11.23
2023-02-18T02:34:34.606Z,10.24
2023-02-18T02:37:07.080Z,9.94
2023-02-18T02:40:06.736Z,10.29
2023-02-18T02:42:51.645Z,9.82
2023-02-18T02:45:33.195Z,9.97
2023-02-18T02:48:20.848Z,9.96
2023-02-18T02:51:05.875Z,10.33
2023-02-18T02:53:35.905Z,9.91
2023-02-18T02:56:03.036Z,9.77
2023-02-18T02:58:29.998Z,9.68
2023-02-18T03:01:05.218Z,9.89
2023-02-18T03:03:43.624Z,10.05
2023-02-18T03:06:24.147Z,10.13
2023-02-18T03:09:14.765Z,10.45
2023-02-18T03:11:54.144Z,10.19
2023-02-18T03:15:15.582Z,10.55
2023-02-18T03:17:57.827Z,10.18
2023-02-18T03:20:39.312Z,9.94
2023-02-18T03:23:11.796Z,10.28
2023-02-18T03:25:40.418Z,10.29
2023-02-18T03:28:18.120Z,9.91
2023-02-18T03:30:49.647Z,9.38
2023-02-18T03:33:25.944Z,9.65
2023-02-18T03:35:55.957Z,9.71
2023-02-18T03:39:00.568Z,9.59
2023-02-18T03:41:27.576Z,9.77
2023-02-18T03:44:00.536Z,9.55
2023-02-18T03:46:28.784Z,9.67
2023-02-18T03:48:56.479Z,9.82
2023-02-18T03:51:24.168Z,10.18
2023-02-18T03:53:50.838Z,10.49
2023-02-18T03:56:18.844Z,10.67
2023-02-18T03:58:45.745Z,10.91
2023-02-18T04:01:12.548Z,10.73
2023-02-18T04:03:39.142Z,10.98
2023-02-18T04:06:06.180Z,11.17
2023-02-18T04:08:33.043Z,11.10
2023-02-18T04:10:59.708Z,11.22
2023-02-18T04:13:46.545Z,11.24
2023-02-18T04:16:14.101Z,11.19
2023-02-18T04:18:40.768Z,10.98
2023-02-18T04:21:07.420Z,10.93
2023-02-18T04:23:34.605Z,10.82
2023-02-18T04:26:01.238Z,10.59
2023-02-18T04:28:27.829Z,10.74
2023-02-18T04:30:54.534Z,10.73
2023-02-18T04:33:21.173Z,10.22
2023-02-18T04:35:47.797Z,10.22
2023-02-18T04:38:14.532Z,10.04
2023-02-18T04:40:41.236Z,10.35
2023-02-18T04:43:07.869Z,10.38
2023-02-18T04:45:34.498Z,10.38
2023-02-18T04:48:01.102Z,10.30
2023-02-18T04:50:28.188Z,10.33
2023-02-18T04:52:54.821Z,10.25
2023-02-18T04:55:21.425Z,10.40
2023-02-18T04:57:48.104Z,10.49
2023-02-18T05:00:17.499Z,10.58
2023-02-18T05:02:45.026Z,10.67
2023-02-18T05:05:13.021Z,10.23
2023-02-18T05:07:40.033Z,10.40
2023-02-18T05:10:07.417Z,10.33
2023-02-18T05:12:34.065Z,9.84
2023-02-18T05:15:00.677Z,10.19
2023-02-18T05:17:27.337Z,10.21
2023-02-18T05:19:53.953Z,10.16
2023-02-18T05:22:20.620Z,10.31
2023-02-18T05:24:47.251Z,10.37
2023-02-18T05:27:13.902Z,10.43
2023-02-18T05:29:40.527Z,9.59
2023-02-18T05:32:07.223Z,9.93
2023-02-18T05:34:33.892Z,10.04
2023-02-18T05:37:00.512Z,10.13
2023-02-18T05:39:29.955Z,10.24
2023-02-18T05:41:56.577Z,10.05
2023-02-18T05:44:23.314Z,10.14
2023-02-18T05:46:49.952Z,9.81
2023-02-18T05:49:16.607Z,9.92
2023-02-18T05:51:43.637Z,9.16
2023-02-18T05:54:10.273Z,8.69
2023-02-18T05:56:36.881Z,9.07
2023-02-18T05:59:03.602Z,9.05
2023-02-18T06:01:30.212Z,9.33
2023-02-18T06:03:56.857Z,9.34
2023-02-18T06:06:23.989Z,9.38
2023-02-18T06:08:50.639Z,9.36
2023-02-18T06:11:19.636Z,9.33
2023-02-18T06:13:46.451Z,9.15
2023-02-18T06:16:13.430Z,8.94
2023-02-18T06:18:40.563Z,8.94
2023-02-18T06:21:07.293Z,8.76
2023-02-18T06:23:33.911Z,8.87
2023-02-18T06:26:00.568Z,8.09
2023-02-18T06:28:27.206Z,8.28
2023-02-18T06:30:53.824Z,8.24
2023-02-18T06:33:20.456Z,8.16
2023-02-18T06:36:01.622Z,8.21
2023-02-18T06:38:28.665Z,8.07
2023-02-18T06:40:55.280Z,8.06
2023-02-18T06:43:22.407Z,8.01
2023-02-18T06:45:49.238Z,7.89
2023-02-18T06:48:15.896Z,8.08
2023-02-18T06:50:43.213Z,7.89
2023-02-18T06:53:09.830Z,8.13
2023-02-18T06:55:39.950Z,8.20
2023-02-18T06:58:06.609Z,7.90
2023-02-18T07:00:33.386Z,8.12
2023-02-18T07:03:00.177Z,7.62
2023-02-18T07:05:26.942Z,7.46
2023-02-18T07:07:53.833Z,7.97
2023-02-18T07:10:20.796Z,8.46
2023-02-18T07:12:48.364Z,8.41
2023-02-18T07:15:15.400Z,8.66
2023-02-18T07:17:42.028Z,8.88
2023-02-18T07:20:09.377Z,8.97
2023-02-18T07:22:36.008Z,8.46
2023-02-18T07:25:02.886Z,8.76
2023-02-18T07:27:29.483Z,8.78
2023-02-18T07:29:56.169Z,8.80
2023-02-18T07:32:22.833Z,8.71
2023-02-18T07:34:52.024Z,8.76
2023-02-18T07:37:21.227Z,9.07
2023-02-18T07:39:47.926Z,9.35
2023-02-18T07:42:15.007Z,9.69
2023-02-18T07:44:42.429Z,9.84
2023-02-18T07:47:14.975Z,10.10
2023-02-18T07:49:41.584Z,10.20
2023-02-18T07:52:08.533Z,10.36
2023-02-18T07:54:35.362Z,10.43
2023-02-18T07:57:01.950Z,10.55
2023-02-18T07:59:28.573Z,10.82
2023-02-18T08:01:55.273Z,11.43
2023-02-18T08:04:22.110Z,12.11
2023-02-18T08:06:50.026Z,12.56
2023-02-18T08:09:18.287Z,12.97
2023-02-18T08:11:45.474Z,13.50
2023-02-18T08:14:12.201Z,13.80
2023-02-18T08:16:38.888Z,13.91
2023-02-18T08:19:05.549Z,14.08
2023-02-18T08:21:32.279Z,14.28
2023-02-18T08:23:59.934Z,14.34
2023-02-18T08:26:27.539Z,14.15
2023-02-18T08:28:54.259Z,14.19
2023-02-18T08:31:28.564Z,14.39
2023-02-18T08:33:56.621Z,14.25
2023-02-18T08:36:23.710Z,14.21
2023-02-18T08:38:50.635Z,13.32
2023-02-18T08:41:17.669Z,13.29
2023-02-18T08:43:44.883Z,12.56
2023-02-18T08:46:15.873Z,12.95
2023-02-18T08:48:44.201Z,12.93
2023-02-18T08:51:19.944Z,12.48
2023-02-18T08:53:47.403Z,12.42
2023-02-18T08:56:15.532Z,12.43
2023-02-18T08:58:42.586Z,12.56
2023-02-18T09:01:12.235Z,12.14
2023-02-18T09:03:41.823Z,12.03
2023-02-18T09:06:08.910Z,11.30
2023-02-18T09:08:35.549Z,11.70
2023-02-18T09:11:04.681Z,11.66
2023-02-18T09:13:33.726Z,11.67
2023-02-18T09:16:13.582Z,11.76
2023-02-18T09:18:41.281Z,11.89
2023-02-18T09:21:09.566Z,11.88
2023-02-18T09:23:37.053Z,11.46
2023-02-18T09:26:09.921Z,11.24
2023-02-18T09:28:38.855Z,11.49
2023-02-18T09:31:17.214Z,11.38
2023-02-18T09:33:53.624Z,11.52
2023-02-18T09:36:20.628Z,11.51
2023-02-18T09:38:47.765Z,11.55
2023-02-18T09:41:30.380Z,12.03
2023-02-18T09:44:05.921Z,12.11
2023-02-18T09:46:40.162Z,11.92
2023-02-18T09:49:16.669Z,11.80
2023-02-18T09:51:44.379Z,11.66
2023-02-18T09:54:22.368Z,11.85
2023-02-18T09:56:51.835Z,11.88
2023-02-18T09:59:24.890Z,11.93
2023-02-18T10:01:54.420Z,11.74
2023-02-18T10:04:34.778Z,12.03
2023-02-18T10:07:02.987Z,12.16
2023-02-18T10:09:40.969Z,12.06
2023-02-18T10:12:17.012Z,12.24
2023-02-18T10:14:49.682Z,11.97
2023-02-18T10:17:18.425Z,11.83
2023-02-18T10:19:48.848Z,11.85
2023-02-18T10:22:18.151Z,12.33
2023-02-18T10:25:04.736Z,12.00
2023-02-18T10:27:35.207Z,12.49
2023-02-18T10:30:35.771Z,12.06
2023-02-18T10:33:33.387Z,12.43
2023-02-18T10:36:23.013Z,12.35
2023-02-18T10:39:20.571Z,12.88
2023-02-18T10:41:50.144Z,12.82
2023-02-18T10:44:44.439Z,13.17
2023-02-18T10:47:37.137Z,13.23
2023-02-18T10:50:23.972Z,12.78
2023-02-18T10:52:56.320Z,13.09
2023-02-18T10:55:39.730Z,12.76
2023-02-18T10:58:36.210Z,13.11
2023-02-18T11:01:23.337Z,12.99
2023-02-18T11:03:53.073Z,12.80
2023-02-18T11:06:33.524Z,12.60
2023-02-18T11:09:02.127Z,12.84
2023-02-18T11:11:39.350Z,12.89
2023-02-18T11:14:08.318Z,12.90
2023-02-18T11:16:43.515Z,13.28
2023-02-18T11:19:33.144Z,12.95
2023-02-18T11:22:20.877Z,12.78
2023-02-18T11:24:48.702Z,13.01
2023-02-18T11:27:30.518Z,13.18
2023-02-18T11:30:05.632Z,13.18
2023-02-18T11:32:36.785Z,12.80
2023-02-18T11:35:05.828Z,13.03
2023-02-18T11:37:35.744Z,13.34
2023-02-18T11:40:02.605Z,13.57
2023-02-18T11:42:29.839Z,13.42
2023-02-18T11:44:59.532Z,13.65
2023-02-18T11:47:34.952Z,13.68
2023-02-18T11:50:10.843Z,13.69
2023-02-18T11:52:44.903Z,13.22
2023-02-18T11:55:26.500Z,13.47
2023-02-18T11:58:05.916Z,13.57
2023-02-18T12:00:38.380Z,13.57
2023-02-18T12:03:18.116Z,13.92
2023-02-18T12:05:46.396Z,13.69
2023-02-18T12:08:19.266Z,13.71
2023-02-18T12:10:48.013Z,13.67
2023-02-18T12:13:31.430Z,13.60
2023-02-18T12:16:06.878Z,13.21
2023-02-18T12:18:51.810Z,13.41
2023-02-18T12:21:33.618Z,12.91
2023-02-18T12:24:26.079Z,12.81
2023-02-18T12:27:34.240Z,12.92
2023-02-18T12:30:12.824Z,13.21
2023-02-18T12:32:50.344Z,12.97
2023-02-18T12:35:36.394Z,13.43
2023-02-18T12:38:43.093Z,13.32
2023-02-18T12:41:41.670Z,13.43
2023-02-18T12:44:28.083Z,13.25
2023-02-18T12:47:30.329Z,13.64
2023-02-18T12:50:05.974Z,13.92
2023-02-18T12:53:09.036Z,13.63
2023-02-18T12:56:09.866Z,13.82
2023-02-18T12:59:02.272Z,13.77
2023-02-18T13:01:46.837Z,13.38
2023-02-18T13:04:25.278Z,13.98
2023-02-18T13:07:31.078Z,14.12
2023-02-18T13:10:17.425Z,14.50
2023-02-18T13:12:58.872Z,14.24
2023-02-18T13:15:39.045Z,13.85
2023-02-18T13:18:15.589Z,13.73
2023-02-18T13:20:52.272Z,13.70
2023-02-18T13:23:24.247Z,14.31
2023-02-18T13:26:00.152Z,14.16
2023-02-18T13:28:36.644Z,14.43
2023-02-18T13:31:41.116Z,14.58
2023-02-18T13:34:24.459Z,14.38
2023-02-18T13:37:10.951Z,14.71
2023-02-18T13:39:45.591Z,14.67
2023-02-18T13:42:29.892Z,14.95
2023-02-18T13:44:56.465Z,15.29
2023-02-18T13:47:36.421Z,15.25
2023-02-18T13:50:25.872Z,15.17
2023-02-18T13:52:59.220Z,15.12
2023-02-18T13:55:44.796Z,15.10
2023-02-18T13:58:21.612Z,15.11
2023-02-18T14:01:18.030Z,15.10
2023-02-18T14:03:44.610Z,15.21
2023-02-18T14:06:33.883Z,14.90
2023-02-18T14:09:12.347Z,14.94
2023-02-18T14:11:49.375Z,15.07
2023-02-18T14:14:27.959Z,15.06
2023-02-18T14:17:19.289Z,14.88
2023-02-18T14:20:00.888Z,15.02
2023-02-18T14:22:48.416Z,15.30
2023-02-18T14:25:20.650Z,15.62
2023-02-18T14:27:52.587Z,15.55
2023-02-18T14:30:26.660Z,15.79
2023-02-18T14:32:58.879Z,15.45
2023-02-18T14:35:40.080Z,15.53
2023-02-18T14:38:39.684Z,15.67
2023-02-18T14:41:30.243Z,15.35
2023-02-18T14:44:34.537Z,15.42
2023-02-18T14:47:39.621Z,15.75
2023-02-18T14:50:15.214Z,15.68
2023-02-18T14:52:53.145Z,15.53
2023-02-18T14:55:29.964Z,16.01
2023-02-18T14:58:03.482Z,15.98
2023-02-18T15:00:38.843Z,15.96
2023-02-18T15:03:14.954Z,15.28
2023-02-18T15:05:43.191Z,15.62
2023-02-18T15:08:22.212Z,15.57
2023-02-18T15:11:01.563Z,15.10
2023-02-18T15:13:32.917Z,15.33
2023-02-18T15:16:04.952Z,15.77
2023-02-18T15:18:37.508Z,15.97
2023-02-18T15:21:08.168Z,15.85
2023-02-18T15:23:41.165Z,16.05
2023-02-18T15:26:14.732Z,15.72
2023-02-18T15:28:53.427Z,16.13
2023-02-18T15:31:27.176Z,15.70
2023-02-18T15:33:53.886Z,15.83
2023-02-18T15:36:20.501Z,15.82
2023-02-18T15:38:47.359Z,15.68
2023-02-18T15:41:21.888Z,15.40
2023-02-18T15:44:07.088Z,16.09
2023-02-18T15:46:34.822Z,15.96
2023-02-18T15:49:01.765Z,15.88
2023-02-18T15:51:31.378Z,15.93
2023-02-18T15:54:03.417Z,15.97
2023-02-18T15:56:37.616Z,16.26
2023-02-18T15:59:27.563Z,16.50
2023-02-18T16:02:07.957Z,16.30
2023-02-18T16:04:40.118Z,15.98
2023-02-18T16:07:23.438Z,15.30
2023-02-18T16:09:51.188Z,15.79
2023-02-18T16:12:32.145Z,16.26
2023-02-18T16:15:00.635Z,16.19
2023-02-18T16:17:29.599Z,16.29
2023-02-18T16:20:21.076Z,15.80
2023-02-18T16:22:53.339Z,15.84
2023-02-18T16:25:26.730Z,15.56
2023-02-18T16:28:03.578Z,15.75
2023-02-18T16:30:33.143Z,15.51
2023-02-18T16:33:00.594Z,15.77
2023-02-18T16:35:32.812Z,16.03
2023-02-18T16:38:04.588Z,16.18
2023-02-18T16:40:36.427Z,15.89
2023-02-18T16:43:12.874Z,15.74
2023-02-18T16:45:44.638Z,15.86
2023-02-18T16:48:24.599Z,15.74
2023-02-18T16:50:51.700Z,15.76
2023-02-18T16:53:18.885Z,15.86
2023-02-18T16:55:45.781Z,15.81
2023-02-18T16:58:12.532Z,15.91
2023-02-18T17:00:39.532Z,15.63
2023-02-18T17:03:06.560Z,15.57
2023-02-18T17:05:34.618Z,15.40
2023-02-18T17:08:17.279Z,15.24
2023-02-18T17:10:45.563Z,14.71
2023-02-18T17:13:20.902Z,14.84
2023-02-18T17:15:51.603Z,14.24
2023-02-18T17:18:18.867Z,14.28
2023-02-18T17:20:45.918Z,14.06
2023-02-18T17:23:17.712Z,14.05
2023-02-18T17:25:44.697Z,14.15
2023-02-18T17:28:11.316Z,14.34
2023-02-18T17:30:41.746Z,14.01
2023-02-18T17:33:15.340Z,13.95
2023-02-18T17:35:42.120Z,13.77
2023-02-18T17:38:14.293Z,13.31
2023-02-18T17:40:40.933Z,13.28
2023-02-18T17:43:13.228Z,13.32
2023-02-18T17:45:44.851Z,12.95
2023-02-18T17:48:11.488Z,12.98
2023-02-18T17:50:38.126Z,13.36
2023-02-18T17:53:04.768Z,13.40
2023-02-18T17:55:35.352Z,13.70
2023-02-18T17:58:02.334Z,13.29
2023-02-18T18:00:41.200Z,13.09
2023-02-18T18:03:07.994Z,12.95
2023-02-18T18:05:37.973Z,12.93
2023-02-18T18:08:06.286Z,13.00
2023-02-18T18:10:40.464Z,12.79
2023-02-18T18:13:14.772Z,12.49
2023-02-18T18:15:43.848Z,12.48
2023-02-18T18:18:12.076Z,12.97
2023-02-18T18:20:40.929Z,12.63
2023-02-18T18:23:07.838Z,12.36
2023-02-18T18:25:38.904Z,12.73
2023-02-18T18:28:07.022Z,12.61
2023-02-18T18:30:36.749Z,12.72
2023-02-18T18:33:06.620Z,13.00
2023-02-18T18:35:35.727Z,12.67
2023-02-18T18:38:02.712Z,12.57
2023-02-18T18:40:32.335Z,12.48
2023-02-18T18:43:01.385Z,12.40
2023-02-18T18:45:36.869Z,11.97
2023-02-18T18:48:05.374Z,12.82
2023-02-18T18:50:32.620Z,12.51
2023-02-18T18:52:59.370Z,12.84
2023-02-18T18:55:25.921Z,12.48
2023-02-18T18:57:53.157Z,12.86
2023-02-18T19:00:31.223Z,13.08
2023-02-18T19:02:58.701Z,12.94
2023-02-18T19:05:32.388Z,12.34
2023-02-18T19:07:59.431Z,12.04
2023-02-18T19:10:29.606Z,12.38
2023-02-18T19:13:14.170Z,12.36
2023-02-18T19:15:44.123Z,12.05
2023-02-18T19:18:20.499Z,12.20
2023-02-18T19:20:48.311Z,12.38
2023-02-18T19:23:19.217Z,12.45
2023-02-18T19:25:45.922Z,12.22
2023-02-18T19:28:12.789Z,12.28
2023-02-18T19:30:40.522Z,11.84
2023-02-18T19:33:10.450Z,12.21
2023-02-18T19:35:49.679Z,12.29
2023-02-18T19:38:50.967Z,12.46
2023-02-18T19:41:20.718Z,12.58
2023-02-18T19:43:58.524Z,12.70
2023-02-18T19:46:45.511Z,12.52
2023-02-18T19:49:12.185Z,12.47
2023-02-18T19:51:38.840Z,12.17
2023-02-18T19:54:05.493Z,12.10
2023-02-18T19:56:32.144Z,12.44
2023-02-18T19:58:58.757Z,11.85
2023-02-18T20:01:25.420Z,11.41
2023-02-18T20:03:52.121Z,11.03
2023-02-18T20:06:24.102Z,11.67
2023-02-18T20:08:51.445Z,11.82
2023-02-18T20:11:18.247Z,11.72
2023-02-18T20:13:46.865Z,11.76
2023-02-18T20:16:16.155Z,11.69
2023-02-18T20:18:42.863Z,11.52
2023-02-18T20:21:11.416Z,11.62
2023-02-18T20:23:38.392Z,11.67
2023-02-18T20:26:12.984Z,11.79
2023-02-18T20:28:39.619Z,11.54
2023-02-18T20:31:11.855Z,11.55
2023-02-18T20:33:39.127Z,11.70
2023-02-18T20:36:06.223Z,12.01
2023-02-18T20:38:34.158Z,11.61
2023-02-18T20:41:12.690Z,11.57
2023-02-18T20:43:39.491Z,10.72
2023-02-18T20:46:10.700Z,11.52
2023-02-18T20:48:38.072Z,11.63
2023-02-18T20:51:07.626Z,12.07
2023-02-18T20:53:35.791Z,12.00
2023-02-18T20:56:02.605Z,11.77
2023-02-18T20:58:29.813Z,11.22
2023-02-18T21:01:11.272Z,11.15
2023-02-18T21:03:39.342Z,11.30
2023-02-18T21:06:08.774Z,11.43
2023-02-18T21:08:40.283Z,11.70
2023-02-18T21:11:11.006Z,11.03
2023-02-18T21:13:37.903Z,11.45
2023-02-18T21:16:06.755Z,11.30
2023-02-18T21:18:33.959Z,11.08
2023-02-18T21:21:06.818Z,11.09
2023-02-18T21:23:34.310Z,11.03
2023-02-18T21:26:10.252Z,11.29
2023-02-18T21:28:38.419Z,11.07
2023-02-18T21:31:05.547Z,11.20
2023-02-18T21:33:32.198Z,11.04
2023-02-18T21:36:01.905Z,10.42
2023-02-18T21:38:28.539Z,10.93
2023-02-18T21:40:55.118Z,11.21
2023-02-18T21:43:24.033Z,10.94
2023-02-18T21:45:50.737Z,11.11
2023-02-18T21:48:17.414Z,11.14
2023-02-18T21:50:44.053Z,11.09
2023-02-18T21:53:10.705Z,11.52
2023-02-18T21:55:37.330Z,11.15
2023-02-18T21:58:03.933Z,11.34
2023-02-18T22:00:31.594Z,11.22
2023-02-18T22:02:58.189Z,11.28
2023-02-18T22:05:24.913Z,11.40
2023-02-18T22:07:52.250Z,11.56
2023-02-18T22:10:18.925Z,11.34
2023-02-18T22:12:45.586Z,11.00
2023-02-18T22:15:14.825Z,10.41
2023-02-18T22:17:41.439Z,10.71
2023-02-18T22:20:08.620Z,11.11
2023-02-18T22:22:35.355Z,11.20
2023-02-18T22:25:01.985Z,11.22
2023-02-18T22:27:28.614Z,10.26
2023-02-18T22:29:55.203Z,10.63
2023-02-18T22:32:21.997Z,10.69
2023-02-18T22:34:48.657Z,10.69
2023-02-18T22:37:15.287Z,10.65
2023-02-18T22:39:42.068Z,10.66
2023-02-18T22:42:08.755Z,10.69
2023-02-18T22:44:35.535Z,10.75
2023-02-18T22:47:02.202Z,10.30
2023-02-18T22:49:30.843Z,10.69
2023-02-18T22:51:57.442Z,10.66
2023-02-18T22:54:24.086Z,10.45
2023-02-18T22:56:51.077Z,10.61
2023-02-18T22:59:19.124Z,10.86
2023-02-18T23:01:48.766Z,10.57
2023-02-18T23:04:17.704Z,10.45
2023-02-18T23:06:47.234Z,10.30
2023-02-18T23:09:19.214Z,10.27
2023-02-18T23:11:50.110Z,10.32
2023-02-18T23:14:19.286Z,10.20
2023-02-18T23:16:49.329Z,10.49
2023-02-18T23:19:18.840Z,9.85
2023-02-18T23:21:45.832Z,10.11
2023-02-18T23:24:12.512Z,10.27
2023-02-18T23:26:39.196Z,9.92
2023-02-18T23:29:05.876Z,9.82
2023-02-18T23:31:33.841Z,9.83
2023-02-18T23:34:01.489Z,9.76
2023-02-18T23:36:30.666Z,9.92
2023-02-18T23:39:00.403Z,9.90
2023-02-18T23:41:29.632Z,10.28
2023-02-18T23:43:57.286Z,10.10
2023-02-18T23:46:26.479Z,9.90
2023-02-18T23:48:54.285Z,10.28
2023-02-18T23:51:23.943Z,10.10
2023-02-18T23:53:51.203Z,9.82
2023-02-18T23:56:23.994Z,9.91
2023-02-18T23:58:53.485Z,9.77
